createdAt,value
2019-04-01T00:00:34.743Z,1020.70
2019-04-01T00:01:34.756Z,1020.69
2019-04-01T00:02:34.814Z,1020.67
2019-04-01T00:03:34.769Z,1020.65
2019-04-01T00:04:34.804Z,1020.61
2019-04-01T00:05:35.302Z,1020.66
2019-04-01T00:06:34.972Z,1020.67
2019-04-01T00:07:34.818Z,1020.67
2019-04-01T00:08:34.830Z,1020.60
2019-04-01T00:09:34.852Z,1020.61
2019-04-01T00:10:34.839Z,1020.62
2019-04-01T00:11:34.920Z,1020.62
2019-04-01T00:12:34.858Z,1020.60
2019-04-01T00:13:34.876Z,1020.62
2019-04-01T00:14:34.881Z,1020.61
2019-04-01T00:15:34.890Z,1020.56
2019-04-01T00:16:34.897Z,1020.54
2019-04-01T00:17:35.164Z,1020.54
2019-04-01T00:18:34.967Z,1020.50
2019-04-01T00:19:34.926Z,1020.53
2019-04-01T00:20:34.942Z,1020.51
2019-04-01T00:21:34.946Z,1020.53
2019-04-01T00:22:34.978Z,1020.55
2019-04-01T00:23:34.963Z,1020.52
2019-04-01T00:24:35.000Z,1020.54
2019-04-01T00:25:35.019Z,1020.51
2019-04-01T00:26:34.998Z,1020.46
2019-04-01T00:27:35.035Z,1020.51
2019-04-01T00:28:35.063Z,1020.47
2019-04-01T00:29:35.025Z,1020.44
2019-04-01T00:30:35.033Z,1020.50
2019-04-01T00:31:35.057Z,1020.50
2019-04-01T00:32:35.058Z,1020.46
2019-04-01T00:33:35.065Z,1020.41
2019-04-01T00:34:35.083Z,1020.42
2019-04-01T00:35:35.083Z,1020.48
2019-04-01T00:36:35.131Z,1020.48
2019-04-01T00:37:35.103Z,1020.47
2019-04-01T00:38:35.109Z,1020.48
2019-04-01T00:40:35.131Z,1020.47
2019-04-01T00:41:35.141Z,1020.46
2019-04-01T00:42:35.215Z,1020.50
2019-04-01T00:43:35.171Z,1020.49
2019-04-01T00:44:35.175Z,1020.50
2019-04-01T00:46:35.188Z,1020.46
2019-04-01T00:47:35.300Z,1020.46
2019-04-01T00:48:35.209Z,1020.45
2019-04-01T00:49:35.218Z,1020.46
2019-04-01T00:50:35.895Z,1020.40
2019-04-01T00:51:35.265Z,1020.39
2019-04-01T00:52:35.686Z,1020.41
2019-04-01T00:53:35.251Z,1020.38
2019-04-01T00:55:35.413Z,1020.36
2019-04-01T00:56:35.352Z,1020.36
2019-04-01T00:57:35.292Z,1020.36
2019-04-01T00:58:35.300Z,1020.34
2019-04-01T00:59:35.315Z,1020.31
2019-04-01T01:00:35.329Z,1020.33
2019-04-01T01:01:35.697Z,1020.36
2019-04-01T01:02:35.350Z,1020.33
2019-04-01T01:03:35.349Z,1020.32
2019-04-01T01:04:35.373Z,1020.29
2019-04-01T01:05:35.367Z,1020.28
2019-04-01T01:06:35.376Z,1020.26
2019-04-01T01:07:35.383Z,1020.25
2019-04-01T01:08:35.411Z,1020.28
2019-04-01T01:09:35.741Z,1020.26
2019-04-01T01:10:35.438Z,1020.22
2019-04-01T01:11:35.422Z,1020.23
2019-04-01T01:12:35.432Z,1020.24
2019-04-01T01:13:35.445Z,1020.27
2019-04-01T01:14:35.478Z,1020.25
2019-04-01T01:15:35.581Z,1020.22
2019-04-01T01:16:35.467Z,1020.22
2019-04-01T01:17:35.486Z,1020.17
2019-04-01T01:18:35.488Z,1020.16
2019-04-01T01:19:35.560Z,1020.15
2019-04-01T01:21:36.298Z,1020.17
2019-04-01T01:22:35.549Z,1020.14
2019-04-01T01:23:35.539Z,1020.15
2019-04-01T01:24:35.541Z,1020.14
2019-04-01T01:25:35.558Z,1020.08
2019-04-01T01:26:35.596Z,1020.10
2019-04-01T01:27:35.616Z,1020.10
2019-04-01T01:28:35.620Z,1020.04
2019-04-01T01:29:35.591Z,1020.03
2019-04-01T01:30:35.601Z,1020.06
2019-04-01T01:31:35.611Z,1020.03
2019-04-01T01:32:35.624Z,1020.05
2019-04-01T01:33:35.630Z,1020.00
2019-04-01T01:34:35.640Z,1020.01
2019-04-01T01:35:35.649Z,1020.01
2019-04-01T01:36:35.664Z,1019.99
2019-04-01T01:37:35.675Z,1020.02
2019-04-01T01:38:35.681Z,1020.04
2019-04-01T01:39:35.709Z,1020.04
2019-04-01T01:40:35.693Z,1020.01
2019-04-01T01:41:35.701Z,1019.96
2019-04-01T01:42:35.726Z,1019.96
2019-04-01T01:43:35.729Z,1019.94
2019-04-01T01:44:35.730Z,1019.93
2019-04-01T01:45:35.741Z,1019.94
2019-04-01T01:46:35.784Z,1019.90
2019-04-01T01:47:36.189Z,1019.94
2019-04-01T01:48:35.867Z,1019.94
2019-04-01T01:49:35.834Z,1019.90
2019-04-01T01:50:35.856Z,1019.92
2019-04-01T01:51:35.899Z,1019.90
2019-04-01T01:52:35.914Z,1019.89
2019-04-01T01:53:35.857Z,1019.87
2019-04-01T01:54:35.852Z,1019.86
2019-04-01T01:55:35.870Z,1019.82
2019-04-01T01:56:36.234Z,1019.81
2019-04-01T01:57:35.918Z,1019.86
2019-04-01T02:00:35.897Z,1019.86
2019-04-01T02:01:35.897Z,1019.89
2019-04-01T02:02:35.901Z,1019.89
2019-04-01T02:03:35.909Z,1019.90
2019-04-01T02:04:35.919Z,1019.89
2019-04-01T02:05:35.958Z,1019.88
2019-04-01T02:06:36.031Z,1019.84
2019-04-01T02:07:35.959Z,1019.91
2019-04-01T02:09:35.966Z,1019.88
2019-04-01T02:10:36.248Z,1019.89
2019-04-01T02:11:36.027Z,1019.89
2019-04-01T02:12:36.002Z,1019.86
2019-04-01T02:13:36.009Z,1019.83
2019-04-01T02:14:36.010Z,1019.86
2019-04-01T02:15:36.023Z,1019.84
2019-04-01T02:16:36.031Z,1019.86
2019-04-01T02:17:36.043Z,1019.89
2019-04-01T02:18:36.052Z,1019.85
2019-04-01T02:19:36.138Z,1019.82
2019-04-01T02:20:36.071Z,1019.81
2019-04-01T02:21:36.076Z,1019.85
2019-04-01T02:22:36.088Z,1019.86
2019-04-01T02:23:36.106Z,1019.82
2019-04-01T02:24:36.146Z,1019.81
2019-04-01T02:25:36.114Z,1019.76
2019-04-01T02:27:36.273Z,1019.76
2019-04-01T02:28:36.296Z,1019.75
2019-04-01T02:30:36.803Z,1019.81
2019-04-01T02:31:36.163Z,1019.79
2019-04-01T02:32:36.180Z,1019.82
2019-04-01T02:33:36.198Z,1019.77
2019-04-01T02:34:36.191Z,1019.77
2019-04-01T02:35:37.012Z,1019.81
2019-04-01T02:36:36.228Z,1019.80
2019-04-01T02:37:36.349Z,1019.82
2019-04-01T02:38:36.278Z,1019.80
2019-04-01T02:39:36.254Z,1019.78
2019-04-01T02:40:36.253Z,1019.78
2019-04-01T02:41:36.262Z,1019.82
2019-04-01T02:42:36.275Z,1019.82
2019-04-01T02:43:36.277Z,1019.80
2019-04-01T02:46:36.314Z,1019.80
2019-04-01T02:47:36.320Z,1019.78
2019-04-01T02:48:36.319Z,1019.75
2019-04-01T02:51:36.655Z,1019.74
2019-04-01T02:52:36.386Z,1019.73
2019-04-01T02:53:36.373Z,1019.72
2019-04-01T02:54:36.389Z,1019.76
2019-04-01T02:55:36.385Z,1019.71
2019-04-01T02:56:36.394Z,1019.70
2019-04-01T02:57:36.419Z,1019.70
2019-04-01T02:58:36.417Z,1019.70
2019-04-01T02:59:36.428Z,1019.73
2019-04-01T03:00:36.437Z,1019.68
2019-04-01T03:01:36.449Z,1019.69
2019-04-01T03:02:36.446Z,1019.68
2019-04-01T03:03:36.467Z,1019.69
2019-04-01T03:04:36.467Z,1019.65
2019-04-01T03:05:36.476Z,1019.65
2019-04-01T03:06:36.483Z,1019.63
2019-04-01T03:07:36.499Z,1019.65
2019-04-01T03:08:36.509Z,1019.66
2019-04-01T03:09:36.510Z,1019.62
2019-04-01T03:10:36.552Z,1019.65
2019-04-01T03:11:36.535Z,1019.64
2019-04-01T03:12:36.545Z,1019.64
2019-04-01T03:13:36.556Z,1019.59
2019-04-01T03:14:37.138Z,1019.59
2019-04-01T03:15:37.466Z,1019.62
2019-04-01T03:16:37.072Z,1019.58
2019-04-01T03:18:36.599Z,1019.57
2019-04-01T03:21:36.741Z,1019.53
2019-04-01T03:22:36.803Z,1019.57
2019-04-01T03:23:36.824Z,1019.60
2019-04-01T03:24:37.221Z,1019.56
2019-04-01T03:25:36.675Z,1019.55
2019-04-01T03:26:36.723Z,1019.51
2019-04-01T03:27:36.677Z,1019.48
2019-04-01T03:29:36.720Z,1019.49
2019-04-01T03:30:36.711Z,1019.52
2019-04-01T03:31:36.710Z,1019.54
2019-04-01T03:32:44.306Z,1019.53
2019-04-01T03:33:36.752Z,1019.51
2019-04-01T03:34:36.739Z,1019.55
2019-04-01T03:35:36.752Z,1019.53
2019-04-01T03:36:36.754Z,1019.57
2019-04-01T03:37:36.776Z,1019.50
2019-04-01T03:38:36.779Z,1019.48
2019-04-01T03:39:36.782Z,1019.43
2019-04-01T03:40:36.792Z,1019.47
2019-04-01T03:41:36.809Z,1019.49
2019-04-01T03:42:36.812Z,1019.44
2019-04-01T03:43:36.824Z,1019.44
2019-04-01T03:44:36.971Z,1019.49
2019-04-01T03:45:36.838Z,1019.49
2019-04-01T03:46:36.984Z,1019.50
2019-04-01T03:47:36.898Z,1019.49
2019-04-01T03:48:36.867Z,1019.49
2019-04-01T03:49:36.885Z,1019.49
2019-04-01T03:50:37.281Z,1019.50
2019-04-01T03:51:37.059Z,1019.46
2019-04-01T03:52:36.899Z,1019.47
2019-04-01T03:53:36.945Z,1019.45
2019-04-01T03:54:36.928Z,1019.46
2019-04-01T03:55:36.937Z,1019.44
2019-04-01T03:56:36.959Z,1019.41
2019-04-01T03:57:36.946Z,1019.43
2019-04-01T03:58:36.969Z,1019.44
2019-04-01T03:59:36.960Z,1019.39
2019-04-01T04:00:37.233Z,1019.42
2019-04-01T04:01:37.394Z,1019.42
2019-04-01T04:02:37.003Z,1019.40
2019-04-01T04:03:37.059Z,1019.40
2019-04-01T04:04:37.013Z,1019.42
2019-04-01T04:05:37.032Z,1019.38
2019-04-01T04:06:37.027Z,1019.35
2019-04-01T04:07:37.040Z,1019.38
2019-04-01T04:08:37.060Z,1019.39
2019-04-01T04:09:37.081Z,1019.35
2019-04-01T04:10:37.080Z,1019.36
2019-04-01T04:12:37.139Z,1019.34
2019-04-01T04:13:37.316Z,1019.34
2019-04-01T04:16:37.142Z,1019.32
2019-04-01T04:17:37.895Z,1019.32
2019-04-01T04:18:37.133Z,1019.35
2019-04-01T04:19:37.145Z,1019.34
2019-04-01T04:20:37.203Z,1019.34
2019-04-01T04:21:37.164Z,1019.35
2019-04-01T04:22:37.175Z,1019.37
2019-04-01T04:23:37.181Z,1019.40
2019-04-01T04:24:37.237Z,1019.41
2019-04-01T04:25:37.200Z,1019.37
2019-04-01T04:26:37.213Z,1019.46
2019-04-01T04:27:37.264Z,1019.42
2019-04-01T04:28:37.224Z,1019.48
2019-04-01T04:29:37.242Z,1019.42
2019-04-01T04:30:37.241Z,1019.40
2019-04-01T04:31:37.265Z,1019.42
2019-04-01T04:32:37.577Z,1019.42
2019-04-01T04:33:37.335Z,1019.42
2019-04-01T04:34:37.353Z,1019.45
2019-04-01T04:35:37.597Z,1019.47
2019-04-01T04:36:37.297Z,1019.44
2019-04-01T04:37:37.449Z,1019.47
2019-04-01T04:38:37.338Z,1019.46
2019-04-01T04:40:40.743Z,1019.45
2019-04-01T04:41:38.323Z,1019.46
2019-04-01T04:42:37.533Z,1019.49
2019-04-01T04:43:38.313Z,1019.47
2019-04-01T04:44:37.606Z,1019.48
2019-04-01T04:45:37.526Z,1019.43
2019-04-01T04:46:38.080Z,1019.42
2019-04-01T04:47:37.632Z,1019.45
2019-04-01T04:48:37.666Z,1019.41
2019-04-01T04:49:37.432Z,1019.40
2019-04-01T04:50:38.335Z,1019.38
2019-04-01T04:51:38.103Z,1019.42
2019-04-01T04:53:38.040Z,1019.43
2019-04-01T04:54:37.600Z,1019.37
2019-04-01T04:55:37.517Z,1019.41
2019-04-01T04:56:38.096Z,1019.45
2019-04-01T04:57:37.481Z,1019.44
2019-04-01T04:58:37.693Z,1019.44
2019-04-01T04:59:37.584Z,1019.42
2019-04-01T05:00:37.616Z,1019.43
2019-04-01T05:01:37.551Z,1019.46
2019-04-01T05:02:37.771Z,1019.45
2019-04-01T05:04:37.823Z,1019.45
2019-04-01T05:05:38.612Z,1019.47
2019-04-01T05:06:38.526Z,1019.47
2019-04-01T05:07:40.965Z,1019.44
2019-04-01T05:10:37.928Z,1019.45
2019-04-01T05:13:38.117Z,1019.49
2019-04-01T05:14:37.632Z,1019.52
2019-04-01T05:15:37.648Z,1019.47
2019-04-01T05:16:37.697Z,1019.44
2019-04-01T05:17:37.660Z,1019.48
2019-04-01T05:18:37.664Z,1019.47
2019-04-01T05:19:37.675Z,1019.47
2019-04-01T05:20:37.682Z,1019.47
2019-04-01T05:21:37.723Z,1019.42
2019-04-01T05:22:37.699Z,1019.44
2019-04-01T05:23:37.736Z,1019.45
2019-04-01T05:24:37.718Z,1019.46
2019-04-01T05:25:38.037Z,1019.44
2019-04-01T05:26:37.741Z,1019.45
2019-04-01T05:27:37.750Z,1019.47
2019-04-01T05:28:37.793Z,1019.46
2019-04-01T05:29:37.754Z,1019.44
2019-04-01T05:30:37.811Z,1019.45
2019-04-01T05:31:37.773Z,1019.46
2019-04-01T05:32:37.782Z,1019.47
2019-04-01T05:34:39.817Z,1019.49
2019-04-01T05:36:38.101Z,1019.46
2019-04-01T05:38:37.836Z,1019.49
2019-04-01T05:39:37.844Z,1019.51
2019-04-01T05:40:37.854Z,1019.58
2019-04-01T05:41:37.870Z,1019.61
2019-04-01T05:42:37.876Z,1019.56
2019-04-01T05:43:37.942Z,1019.57
2019-04-01T05:44:37.904Z,1019.55
2019-04-01T05:45:38.009Z,1019.61
2019-04-01T05:47:37.912Z,1019.64
2019-04-01T05:48:37.925Z,1019.61
2019-04-01T05:49:37.958Z,1019.60
2019-04-01T05:50:37.971Z,1019.59
2019-04-01T05:51:37.954Z,1019.58
2019-04-01T05:52:37.961Z,1019.60
2019-04-01T05:53:38.270Z,1019.59
2019-04-01T05:55:37.995Z,1019.60
2019-04-01T05:57:38.358Z,1019.59
2019-04-01T05:58:38.051Z,1019.58
2019-04-01T05:59:38.067Z,1019.62
2019-04-01T06:00:38.029Z,1019.61
2019-04-01T06:01:38.054Z,1019.62
2019-04-01T06:03:38.064Z,1019.63
2019-04-01T06:04:38.087Z,1019.63
2019-04-01T06:05:38.304Z,1019.65
2019-04-01T06:06:38.302Z,1019.62
2019-04-01T06:07:38.134Z,1019.64
2019-04-01T06:08:38.109Z,1019.61
2019-04-01T06:11:39.291Z,1019.69
2019-04-01T06:12:38.359Z,1019.67
2019-04-01T06:13:38.279Z,1019.68
2019-04-01T06:14:38.706Z,1019.67
2019-04-01T06:15:39.221Z,1019.64
2019-04-01T06:16:39.360Z,1019.64
2019-04-01T06:17:38.596Z,1019.67
2019-04-01T06:18:38.197Z,1019.69
2019-04-01T06:19:38.593Z,1019.67
2019-04-01T06:20:38.205Z,1019.66
2019-04-01T06:21:38.956Z,1019.69
2019-04-01T06:22:38.288Z,1019.69
2019-04-01T06:23:38.496Z,1019.67
2019-04-01T06:24:40.454Z,1019.65
2019-04-01T06:25:38.277Z,1019.68
2019-04-01T06:26:38.308Z,1019.68
2019-04-01T06:27:38.293Z,1019.66
2019-04-01T06:28:38.851Z,1019.65
2019-04-01T06:29:38.345Z,1019.70
2019-04-01T06:31:41.898Z,1019.65
2019-04-01T06:32:38.508Z,1019.70
2019-04-01T06:36:38.995Z,1019.77
2019-04-01T06:37:39.316Z,1019.71
2019-04-01T06:39:39.243Z,1019.76
2019-04-01T06:40:38.887Z,1019.69
2019-04-01T06:41:39.071Z,1019.69
2019-04-01T06:42:38.754Z,1019.68
2019-04-01T06:43:38.417Z,1019.68
2019-04-01T06:44:38.420Z,1019.69
2019-04-01T06:45:38.483Z,1019.70
2019-04-01T06:46:39.032Z,1019.72
2019-04-01T06:47:38.564Z,1019.72
2019-04-01T06:48:38.485Z,1019.69
2019-04-01T06:49:38.465Z,1019.66
2019-04-01T06:50:38.480Z,1019.67
2019-04-01T06:51:38.494Z,1019.67
2019-04-01T06:52:38.506Z,1019.66
2019-04-01T06:53:38.581Z,1019.65
2019-04-01T06:54:38.513Z,1019.67
2019-04-01T06:55:46.151Z,1019.67
2019-04-01T06:56:38.573Z,1019.66
2019-04-01T06:57:38.670Z,1019.61
2019-04-01T06:58:39.071Z,1019.66
2019-04-01T06:59:39.737Z,1019.61
2019-04-01T07:00:38.848Z,1019.67
2019-04-01T07:01:38.582Z,1019.66
2019-04-01T07:02:38.918Z,1019.60
2019-04-01T07:03:39.437Z,1019.61
2019-04-01T07:04:39.454Z,1019.65
2019-04-01T07:05:38.651Z,1019.60
2019-04-01T07:06:38.770Z,1019.65
2019-04-01T07:07:38.642Z,1019.63
2019-04-01T07:08:38.664Z,1019.64
2019-04-01T07:09:39.382Z,1019.60
2019-04-01T07:10:38.680Z,1019.61
2019-04-01T07:11:39.065Z,1019.59
2019-04-01T07:12:38.687Z,1019.57
2019-04-01T07:13:40.223Z,1019.59
2019-04-01T07:14:38.721Z,1019.57
2019-04-01T07:15:38.720Z,1019.59
2019-04-01T07:17:39.088Z,1019.61
2019-04-01T07:18:39.841Z,1019.56
2019-04-01T07:20:39.025Z,1019.61
2019-04-01T07:21:38.869Z,1019.57
2019-04-01T07:23:42.220Z,1019.53
2019-04-01T07:24:39.799Z,1019.52
2019-04-01T07:25:38.816Z,1019.56
2019-04-01T07:26:38.825Z,1019.54
2019-04-01T07:27:38.851Z,1019.50
2019-04-01T07:28:38.926Z,1019.50
2019-04-01T07:29:38.881Z,1019.51
2019-04-01T07:30:41.836Z,1019.50
2019-04-01T07:31:38.869Z,1019.52
2019-04-01T07:32:38.881Z,1019.50
2019-04-01T07:33:39.354Z,1019.47
2019-04-01T07:34:38.940Z,1019.46
2019-04-01T07:35:38.923Z,1019.48
2019-04-01T07:36:38.916Z,1019.49
2019-04-01T07:37:39.325Z,1019.52
2019-04-01T07:38:39.751Z,1019.48
2019-04-01T07:39:39.295Z,1019.45
2019-04-01T07:40:39.006Z,1019.46
2019-04-01T07:45:39.004Z,1019.46
2019-04-01T07:46:39.042Z,1019.47
2019-04-01T07:47:39.093Z,1019.51
2019-04-01T07:48:39.037Z,1019.52
2019-04-01T07:49:39.049Z,1019.53
2019-04-01T07:50:39.060Z,1019.52
2019-04-01T07:51:39.076Z,1019.48
2019-04-01T07:52:39.177Z,1019.47
2019-04-01T07:53:39.083Z,1019.49
2019-04-01T07:54:39.094Z,1019.49
2019-04-01T07:55:39.111Z,1019.54
2019-04-01T07:56:39.116Z,1019.51
2019-04-01T07:57:39.125Z,1019.50
2019-04-01T07:58:39.177Z,1019.45
2019-04-01T07:59:39.172Z,1019.45
2019-04-01T08:00:39.354Z,1019.46
2019-04-01T08:02:39.681Z,1019.47
2019-04-01T08:03:41.910Z,1019.49
2019-04-01T08:07:39.247Z,1019.48
2019-04-01T08:08:39.272Z,1019.54
2019-04-01T08:09:39.398Z,1019.52
2019-04-01T08:10:39.757Z,1019.51
2019-04-01T08:11:39.953Z,1019.50
2019-04-01T08:12:39.372Z,1019.50
2019-04-01T08:13:39.574Z,1019.50
2019-04-01T08:14:40.724Z,1019.54
2019-04-01T08:15:40.044Z,1019.45
2019-04-01T08:16:40.031Z,1019.44
2019-04-01T08:17:39.637Z,1019.45
2019-04-01T08:19:39.361Z,1019.48
2019-04-01T08:20:39.651Z,1019.52
2019-04-01T08:21:40.340Z,1019.42
2019-04-01T08:22:43.020Z,1019.45
2019-04-01T08:23:39.820Z,1019.41
2019-04-01T08:25:39.606Z,1019.42
2019-04-01T08:27:40.316Z,1019.40
2019-04-01T08:28:41.271Z,1019.38
2019-04-01T08:29:40.472Z,1019.34
2019-04-01T08:30:40.379Z,1019.35
2019-04-01T08:31:40.029Z,1019.39
2019-04-01T08:32:39.497Z,1019.40
2019-04-01T08:33:39.607Z,1019.36
2019-04-01T08:34:39.623Z,1019.37
2019-04-01T08:36:40.000Z,1019.37
2019-04-01T08:37:40.473Z,1019.33
2019-04-01T08:38:40.632Z,1019.34
2019-04-01T08:39:39.920Z,1019.34
2019-04-01T08:40:40.423Z,1019.34
2019-04-01T08:41:40.361Z,1019.31
2019-04-01T08:42:40.051Z,1019.31
2019-04-01T08:43:41.531Z,1019.27
2019-04-01T08:45:41.551Z,1019.24
2019-04-01T08:47:40.807Z,1019.30
2019-04-01T08:48:40.968Z,1019.24
2019-04-01T08:49:39.751Z,1019.27
2019-04-01T08:51:41.102Z,1019.25
2019-04-01T08:52:39.987Z,1019.21
2019-04-01T08:53:39.956Z,1019.17
2019-04-01T08:54:39.989Z,1019.19
2019-04-01T08:55:39.789Z,1019.16
2019-04-01T08:56:39.867Z,1019.11
2019-04-01T08:57:40.832Z,1019.17
2019-04-01T08:58:39.847Z,1019.12
2019-04-01T08:59:41.185Z,1019.11
2019-04-01T09:00:39.883Z,1019.11
2019-04-01T09:02:40.266Z,1019.07
2019-04-01T09:03:41.291Z,1019.10
2019-04-01T09:04:39.924Z,1019.09
2019-04-01T09:05:40.687Z,1019.07
2019-04-01T09:06:39.865Z,1019.07
2019-04-01T09:10:40.438Z,1019.07
2019-04-01T09:13:40.437Z,1018.99
2019-04-01T09:14:40.025Z,1018.96
2019-04-01T09:15:41.424Z,1018.98
2019-04-01T09:16:40.901Z,1018.94
2019-04-01T09:18:40.291Z,1018.91
2019-04-01T09:21:40.030Z,1018.88
2019-04-01T09:22:41.948Z,1018.91
2019-04-01T09:24:40.156Z,1018.88
2019-04-01T09:25:40.501Z,1018.83
2019-04-01T09:26:40.093Z,1018.81
2019-04-01T09:27:40.228Z,1018.84
2019-04-01T09:28:40.166Z,1018.86
2019-04-01T09:29:40.275Z,1018.83
2019-04-01T09:31:40.371Z,1018.79
2019-04-01T09:32:40.428Z,1018.82
2019-04-01T09:33:40.416Z,1018.77
2019-04-01T09:34:40.614Z,1018.77
2019-04-01T09:35:40.995Z,1018.80
2019-04-01T09:36:40.895Z,1018.81
2019-04-01T09:37:40.653Z,1018.76
2019-04-01T09:38:41.451Z,1018.77
2019-04-01T09:39:40.250Z,1018.77
2019-04-01T09:41:40.406Z,1018.74
2019-04-01T09:42:41.416Z,1018.69
2019-04-01T09:43:40.808Z,1018.74
2019-04-01T09:44:41.166Z,1018.67
2019-04-01T09:45:40.727Z,1018.67
2019-04-01T09:46:41.417Z,1018.59
2019-04-01T09:47:40.439Z,1018.61
2019-04-01T09:48:42.526Z,1018.59
2019-04-01T09:50:41.003Z,1018.56
2019-04-01T09:52:40.450Z,1018.55
2019-04-01T09:57:40.432Z,1018.44
2019-04-01T09:58:40.446Z,1018.46
2019-04-01T09:59:40.506Z,1018.47
2019-04-01T10:00:40.482Z,1018.44
2019-04-01T10:01:40.527Z,1018.47
2019-04-01T10:02:40.490Z,1018.42
2019-04-01T10:03:40.509Z,1018.34
2019-04-01T10:04:40.532Z,1018.41
2019-04-01T10:05:40.655Z,1018.32
2019-04-01T10:06:40.606Z,1018.34
2019-04-01T10:07:40.674Z,1018.30
2019-04-01T10:08:42.329Z,1018.22
2019-04-01T10:09:40.602Z,1018.26
2019-04-01T10:10:40.586Z,1018.20
2019-04-01T10:11:40.595Z,1018.20
2019-04-01T10:12:40.613Z,1018.23
2019-04-01T10:13:40.628Z,1018.24
2019-04-01T10:14:40.639Z,1018.14
2019-04-01T10:15:40.645Z,1018.13
2019-04-01T10:16:40.655Z,1018.13
2019-04-01T10:17:40.671Z,1018.13
2019-04-01T10:18:40.695Z,1018.07
2019-04-01T10:19:40.702Z,1018.07
2019-04-01T10:20:40.702Z,1018.03
2019-04-01T10:21:40.721Z,1018.11
2019-04-01T10:22:40.729Z,1018.01
2019-04-01T10:23:40.746Z,1017.97
2019-04-01T10:24:40.755Z,1018.00
2019-04-01T10:25:40.769Z,1017.99
2019-04-01T10:26:40.785Z,1018.03
2019-04-01T10:27:40.794Z,1017.97
2019-04-01T10:28:40.810Z,1017.95
2019-04-01T10:29:40.814Z,1017.92
2019-04-01T10:30:40.833Z,1017.91
2019-04-01T10:31:40.848Z,1017.93
2019-04-01T10:32:40.876Z,1017.89
2019-04-01T10:33:40.861Z,1017.89
2019-04-01T10:34:40.889Z,1017.86
2019-04-01T10:35:40.885Z,1017.86
2019-04-01T10:36:40.900Z,1017.90
2019-04-01T10:37:40.918Z,1017.78
2019-04-01T10:38:40.926Z,1017.83
2019-04-01T10:39:40.933Z,1017.77
2019-04-01T10:40:40.954Z,1017.79
2019-04-01T10:41:40.970Z,1017.72
2019-04-01T10:42:40.975Z,1017.76
2019-04-01T10:43:40.985Z,1017.74
2019-04-01T10:44:40.999Z,1017.72
2019-04-01T10:45:41.019Z,1017.69
2019-04-01T10:46:41.057Z,1017.66
2019-04-01T10:47:41.054Z,1017.71
2019-04-01T10:48:41.090Z,1017.62
2019-04-01T10:49:41.095Z,1017.66
2019-04-01T10:50:41.144Z,1017.68
2019-04-01T10:51:41.154Z,1017.61
2019-04-01T10:52:44.044Z,1017.60
2019-04-01T10:53:41.170Z,1017.62
2019-04-01T10:54:41.195Z,1017.55
2019-04-01T10:55:41.135Z,1017.53
2019-04-01T10:56:41.186Z,1017.56
2019-04-01T10:57:43.547Z,1017.61
2019-04-01T10:58:41.215Z,1017.56
2019-04-01T10:59:41.279Z,1017.54
2019-04-01T11:00:41.237Z,1017.54
2019-04-01T11:01:41.227Z,1017.52
2019-04-01T11:02:41.246Z,1017.54
2019-04-01T11:03:41.374Z,1017.51
2019-04-01T11:04:41.370Z,1017.51
2019-04-01T11:05:41.294Z,1017.47
2019-04-01T11:06:41.338Z,1017.53
2019-04-01T11:07:41.349Z,1017.47
2019-04-01T11:08:41.368Z,1017.53
2019-04-01T11:09:41.312Z,1017.48
2019-04-01T11:10:41.319Z,1017.44
2019-04-01T11:11:41.337Z,1017.50
2019-04-01T11:12:41.343Z,1017.45
2019-04-01T11:13:41.357Z,1017.41
2019-04-01T11:14:41.367Z,1017.46
2019-04-01T11:15:41.384Z,1017.41
2019-04-01T11:16:41.398Z,1017.40
2019-04-01T11:17:41.413Z,1017.36
2019-04-01T11:18:41.426Z,1017.41
2019-04-01T11:19:41.436Z,1017.39
2019-04-01T11:20:41.442Z,1017.41
2019-04-01T11:21:41.454Z,1017.39
2019-04-01T11:22:41.466Z,1017.37
2019-04-01T11:23:41.481Z,1017.31
2019-04-01T11:24:41.495Z,1017.37
2019-04-01T11:25:41.512Z,1017.38
2019-04-01T11:26:41.524Z,1017.35
2019-04-01T11:27:41.531Z,1017.34
2019-04-01T11:28:41.747Z,1017.35
2019-04-01T11:29:41.559Z,1017.35
2019-04-01T11:30:41.599Z,1017.31
2019-04-01T11:31:41.615Z,1017.31
2019-04-01T11:32:41.602Z,1017.30
2019-04-01T11:33:41.616Z,1017.23
2019-04-01T11:34:41.641Z,1017.19
2019-04-01T11:35:41.684Z,1017.17
2019-04-01T11:36:42.267Z,1017.22
2019-04-01T11:37:41.938Z,1017.22
2019-04-01T11:38:41.677Z,1017.15
2019-04-01T11:39:41.724Z,1017.16
2019-04-01T11:40:41.700Z,1017.21
2019-04-01T11:41:41.729Z,1017.20
2019-04-01T11:42:41.745Z,1017.18
2019-04-01T11:43:41.835Z,1017.11
2019-04-01T11:44:41.774Z,1017.11
2019-04-01T11:45:41.881Z,1017.07
2019-04-01T11:46:41.811Z,1017.10
2019-04-01T11:47:41.813Z,1017.11
2019-04-01T11:48:41.852Z,1017.00
2019-04-01T11:49:41.863Z,1017.01
2019-04-01T11:50:41.845Z,1017.04
2019-04-01T11:51:41.926Z,1017.00
2019-04-01T11:52:41.927Z,1017.07
2019-04-01T11:53:41.862Z,1016.97
2019-04-01T11:54:41.874Z,1016.98
2019-04-01T11:55:41.888Z,1016.92
2019-04-01T11:56:41.898Z,1016.94
2019-04-01T11:57:41.912Z,1016.94
2019-04-01T11:58:41.936Z,1016.95
2019-04-01T11:59:41.940Z,1017.01
2019-04-01T12:00:41.956Z,1016.91
2019-04-01T12:01:41.962Z,1016.90
2019-04-01T12:02:41.980Z,1016.93
2019-04-01T12:03:41.991Z,1016.90
2019-04-01T12:04:42.008Z,1016.85
2019-04-01T12:05:42.016Z,1016.88
2019-04-01T12:06:42.034Z,1016.91
2019-04-01T12:07:42.048Z,1016.88
2019-04-01T12:08:42.063Z,1016.84
2019-04-01T12:09:42.068Z,1016.81
2019-04-01T12:10:42.084Z,1016.74
2019-04-01T12:11:42.092Z,1016.75
2019-04-01T12:12:42.101Z,1016.75
2019-04-01T12:13:42.116Z,1016.69
2019-04-01T12:14:42.143Z,1016.71
2019-04-01T12:15:42.143Z,1016.68
2019-04-01T12:16:42.154Z,1016.63
2019-04-01T12:17:42.405Z,1016.73
2019-04-01T12:18:42.180Z,1016.72
2019-04-01T12:19:42.191Z,1016.71
2019-04-01T12:20:42.204Z,1016.70
2019-04-01T12:21:42.228Z,1016.68
2019-04-01T12:22:45.441Z,1016.67
2019-04-01T12:23:42.252Z,1016.60
2019-04-01T12:24:42.256Z,1016.57
2019-04-01T12:25:42.277Z,1016.52
2019-04-01T12:26:42.351Z,1016.47
2019-04-01T12:27:42.296Z,1016.46
2019-04-01T12:28:42.724Z,1016.49
2019-04-01T12:29:42.335Z,1016.47
2019-04-01T12:30:42.339Z,1016.44
2019-04-01T12:31:42.350Z,1016.45
2019-04-01T12:32:42.367Z,1016.46
2019-04-01T12:33:42.376Z,1016.39
2019-04-01T12:34:42.429Z,1016.35
2019-04-01T12:35:42.402Z,1016.35
2019-04-01T12:36:42.416Z,1016.37
2019-04-01T12:37:42.485Z,1016.32
2019-04-01T12:38:42.443Z,1016.29
2019-04-01T12:39:42.459Z,1016.32
2019-04-01T12:40:42.473Z,1016.31
2019-04-01T12:41:42.483Z,1016.31
2019-04-01T12:42:42.546Z,1016.29
2019-04-01T12:43:42.506Z,1016.28
2019-04-01T12:44:42.518Z,1016.27
2019-04-01T12:45:42.532Z,1016.29
2019-04-01T12:46:42.564Z,1016.21
2019-04-01T12:47:43.380Z,1016.16
2019-04-01T12:48:42.590Z,1016.17
2019-04-01T12:49:42.588Z,1016.13
2019-04-01T12:50:42.610Z,1016.09
2019-04-01T12:51:42.615Z,1016.12
2019-04-01T12:52:42.624Z,1016.13
2019-04-01T12:53:42.644Z,1016.05
2019-04-01T12:54:42.659Z,1016.00
2019-04-01T12:55:45.000Z,1015.99
2019-04-01T12:56:42.686Z,1015.97
2019-04-01T12:57:42.695Z,1015.90
2019-04-01T12:58:42.710Z,1015.90
2019-04-01T12:59:45.812Z,1015.98
2019-04-01T13:00:42.748Z,1015.90
2019-04-01T13:01:42.746Z,1015.88
2019-04-01T13:02:42.767Z,1015.81
2019-04-01T13:03:42.999Z,1015.87
2019-04-01T13:04:42.792Z,1015.80
2019-04-01T13:05:42.996Z,1015.80
2019-04-01T13:06:42.817Z,1015.77
2019-04-01T13:07:43.048Z,1015.75
2019-04-01T13:08:42.839Z,1015.75
2019-04-01T13:09:42.853Z,1015.69
2019-04-01T13:10:42.864Z,1015.67
2019-04-01T13:11:42.883Z,1015.61
2019-04-01T13:12:42.888Z,1015.68
2019-04-01T13:13:42.953Z,1015.63
2019-04-01T13:14:43.502Z,1015.70
2019-04-01T13:15:42.933Z,1015.69
2019-04-01T13:16:42.945Z,1015.65
2019-04-01T13:17:42.962Z,1015.66
2019-04-01T13:18:42.975Z,1015.62
2019-04-01T13:19:42.986Z,1015.53
2019-04-01T13:20:43.307Z,1015.55
2019-04-01T13:21:43.017Z,1015.59
2019-04-01T13:22:43.028Z,1015.54